Time;durP1;ratioP1;P1;durP2;ratioP2;P2;SDS_P1;SDS_P2;PMS_P1;PMS_P2;Temp;Humidity;BMP_temperature;BMP_pressure;BME280_temperature;BME280_humidity;BME280_pressure;Samples;Min_cycle;Max_cycle;Signal;HPM_P1;HPM_P2
2024/01/18 00:01:11;;;;;;;43.92;17.00;;;;;;;29.35;74.46;101105.47;5042103;28;66388;-39
2024/01/18 00:03:43;;;;;;;42.63;17.70;;;;;;;29.41;75.20;101101.09;5058251;28;71204;-39
2024/01/18 00:06:14;;;;;;;;;;;;;;;29.01;75.66;101048.84;5057278;28;65490;-40
2024/01/18 00:08:45;;;;;;;43.92;17.95;;;;;;;29.45;75.39;101105.09;5069184;27;69970;-39
2024/01/18 00:11:16;;;;;;;35.10;17.75;;;;;;;29.57;75.54;101118.81;5048520;28;65780;-39
2024/01/18 00:13:47;;;;;;;44.63;19.02;;;;;;;29.58;75.56;101118.59;5072493;28;69451;-39
2024/01/18 00:16:17;;;;;;;33.88;16.92;;;;;;;29.60;75.48;101116.53;5051899;28;66490;-40
2024/01/18 00:18:48;;;;;;;34.97;16.08;;;;;;;29.63;76.03;101118.00;5041029;28;68826;-39
2024/01/18 00:21:19;;;;;;;31.67;16.13;;;;;;;29.61;75.85;101111.94;5044645;28;66912;-40
2024/01/18 00:23:49;;;;;;;36.35;16.70;;;;;;;29.69;75.74;101122.59;5041455;28;69165;-40
2024/01/18 00:26:20;;;;;;;40.20;17.17;;;;;;;29.75;75.64;101137.97;5042639;28;65974;-39
2024/01/18 00:28:51;;;;;;;32.28;16.58;;;;;;;29.77;75.64;101141.31;5041313;28;70394;-40
2024/01/18 00:31:21;;;;;;;41.38;16.60;;;;;;;29.71;75.39;101125.94;5043375;28;66541;-41
2024/01/18 00:34:01;;;;;;;32.53;16.30;;;;;;;29.81;75.36;101145.28;5044554;28;69202;-41
2024/01/18 00:36:32;;;;;;;37.83;16.45;;;;;;;29.84;74.69;101147.59;5055335;28;65994;-40
2024/01/18 00:39:08;;;;;;;37.20;16.85;;;;;;;29.88;75.20;101157.97;5041770;28;69923;-41
2024/01/18 00:41:39;;;;;;;33.08;15.60;;;;;;;29.75;75.87;101137.97;5034602;28;65883;-39
2024/01/18 00:44:09;;;;;;;32.10;16.42;;;;;;;29.91;75.23;101154.84;5032497;28;69868;-41
2024/01/18 00:46:40;;;;;;;23.83;16.40;;;;;;;29.88;75.98;101161.50;5041693;28;66367;-40
2024/01/18 00:49:10;;;;;;;24.45;15.65;;;;;;;30.01;71.23;101174.22;5044652;28;69628;-40
2024/01/18 00:51:42;;;;;;;20.30;13.33;;;;;;;29.94;70.23;101176.91;5043338;28;65636;-40
2024/01/18 00:54:12;;;;;;;20.30;12.82;;;;;;;29.93;70.01;101182.53;5048954;28;69459;-41
2024/01/18 00:56:44;;;;;;;17.87;12.63;;;;;;;29.94;69.80;101186.91;5050945;28;66612;-40
2024/01/18 00:59:15;;;;;;;19.08;13.30;;;;;;;29.98;69.20;101186.28;5046443;28;70731;-39
2024/01/18 01:01:45;;;;;;;16.48;12.38;;;;;;;29.92;69.24;101176.31;5044394;28;66801;-41
2024/01/18 01:04:16;;;;;;;18.20;11.88;;;;;;;30.02;69.22;101186.69;5050195;28;69481;-40
2024/01/18 01:06:46;;;;;;;15.95;11.88;;;;;;;30.04;69.30;101179.22;5050723;28;66618;-38
2024/01/18 01:09:17;;;;;;;17.95;13.27;;;;;;;30.04;69.24;101195.44;5050131;28;69647;-38
2024/01/18 01:11:47;;;;;;;18.40;12.15;;;;;;;30.07;68.75;101200.44;5053932;28;66163;-38
2024/01/18 01:14:19;;;;;;;14.02;11.68;;;;;;;30.08;68.92;101202.09;5056380;28;70521;-38
2024/01/18 01:16:49;;;;;;;14.90;12.00;;;;;;;30.05;68.48;101202.50;5055002;28;66436;-38
2024/01/18 01:19:20;;;;;;;14.48;11.63;;;;;;;30.10;68.90;101205.44;5055775;28;70025;-38
2024/01/18 01:21:50;;;;;;;17.42;11.85;;;;;;;30.06;68.38;101198.75;5047091;28;65958;-38
2024/01/18 01:24:21;;;;;;;13.35;11.93;;;;;;;30.13;68.65;101215.84;5055238;28;70048;-38
2024/01/18 01:26:52;;;;;;;14.20;12.35;;;;;;;30.15;68.59;101207.53;5047625;28;65374;-38
2024/01/18 01:29:23;;;;;;;15.85;12.15;;;;;;;30.06;68.01;101198.75;5070916;28;70439;-38
2024/01/18 01:31:53;;;;;;;14.18;11.43;;;;;;;30.16;68.62;101214.59;5057725;28;66181;-38
2024/01/18 01:34:24;;;;;;;12.38;11.02;;;;;;;30.14;68.34;101206.66;5053593;28;70256;-38
2024/01/18 01:36:55;;;;;;;12.73;11.48;;;;;;;30.12;68.18;101203.38;5055838;28;66226;-38
2024/01/18 01:39:25;;;;;;;13.10;11.65;;;;;;;30.20;68.53;101211.28;5055653;28;70264;-38
2024/01/18 01:41:56;;;;;;;14.98;10.57;;;;;;;30.20;67.89;101216.69;5043851;28;66304;-38
2024/01/18 01:44:27;;;;;;;13.77;10.98;;;;;;;30.09;68.32;101192.09;5056675;28;70605;-40
2024/01/18 01:46:58;;;;;;;13.48;11.48;;;;;;;30.22;68.07;101220.03;5063510;28;66570;-37
2024/01/18 01:49:29;;;;;;;13.00;11.07;;;;;;;30.23;67.95;101227.13;5038308;28;71117;-38
2024/01/18 01:52:01;;;;;;;14.32;10.95;;;;;;;30.23;68.26;101227.13;5040912;28;64958;-38
2024/01/18 01:54:32;;;;;;;15.27;10.87;;;;;;;30.23;67.64;101220.88;5039285;28;70065;-39
2024/01/18 01:57:04;;;;;;;12.87;11.47;;;;;;;30.26;68.44;101224.00;5038424;28;65983;-37
2024/01/18 01:59:35;;;;;;;13.77;11.30;;;;;;;30.19;67.98;101204.19;5048619;28;69888;-38
2024/01/18 02:02:07;;;;;;;12.10;10.90;;;;;;;30.25;67.80;101203.38;5058660;28;66424;-38
2024/01/18 02:04:39;;;;;;;14.82;10.80;;;;;;;30.27;67.79;101208.59;5046169;28;70733;-38
2024/01/18 02:07:11;;;;;;;12.07;10.87;;;;;;;30.30;67.73;101216.28;5059998;28;66235;-38
2024/01/18 02:09:42;;;;;;;11.10;10.00;;;;;;;30.34;67.89;101214.00;5060201;28;70029;-38
2024/01/18 02:12:13;;;;;;;14.35;11.77;;;;;;;30.36;68.10;101209.22;5050917;28;65818;-37
2024/01/18 02:14:45;;;;;;;11.70;10.32;;;;;;;29.94;67.57;101140.91;5060647;28;70197;-37
2024/01/18 02:17:16;;;;;;;14.02;10.63;;;;;;;30.35;68.11;101202.13;5059111;28;66110;-38
2024/01/18 02:19:46;;;;;;;12.30;10.93;;;;;;;30.38;67.54;101199.00;5061131;28;70720;-37
2024/01/18 02:22:20;;;;;;;12.45;11.25;;;;;;;30.41;68.02;101195.88;5061560;28;65539;-37
2024/01/18 02:25:17;;;;;;;11.00;10.10;;;;;;;30.37;67.93;101192.78;5058756;28;70744;-38
2024/01/18 02:27:48;;;;;;;13.15;11.10;;;;;;;30.44;67.67;101184.63;5061034;28;66006;-38
2024/01/18 02:30:18;;;;;;;11.82;10.70;;;;;;;30.46;68.02;101182.56;5060307;28;70041;-38
2024/01/18 02:32:49;;;;;;;12.32;11.25;;;;;;;30.47;67.95;101189.63;5060642;28;66392;-37
2024/01/18 02:35:21;;;;;;;13.25;11.52;;;;;;;30.16;67.87;101128.84;5060805;28;70618;-38
2024/01/18 02:37:51;;;;;;;15.73;10.63;;;;;;;30.40;67.62;101172.56;5061251;28;66432;-38
2024/01/18 02:40:22;;;;;;;11.77;10.00;;;;;;;30.53;67.46;101188.78;5061327;28;70458;-38
2024/01/18 02:42:53;;;;;;;11.45;10.50;;;;;;;30.56;67.82;101182.09;5048758;28;66597;-38
2024/01/18 02:45:25;;;;;;;11.38;10.23;;;;;;;30.56;67.71;101188.34;5046609;28;68833;-38
2024/01/18 02:47:55;;;;;;;13.43;10.88;;;;;;;30.57;67.23;101184.63;5029023;28;66777;-38
2024/01/18 02:50:26;;;;;;;13.13;10.82;;;;;;;30.34;67.48;101140.91;5039123;28;70556;-38
2024/01/18 02:52:57;;;;;;;13.32;10.75;;;;;;;30.46;67.52;101158.19;5042029;28;65379;-38
2024/01/18 02:55:27;;;;;;;11.65;10.63;;;;;;;30.63;67.29;101181.06;5041350;28;70107;-38
2024/01/18 02:57:58;;;;;;;11.90;10.75;;;;;;;30.63;67.06;101172.94;5035159;28;66991;-38
2024/01/18 03:00:29;;;;;;;11.40;10.27;;;;;;;30.65;67.13;101170.84;5038878;28;70706;-38
2024/01/18 03:02:59;;;;;;;14.70;10.27;;;;;;;30.62;67.36;101160.47;5041773;28;65927;-38
2024/01/18 03:05:31;;;;;;;11.40;10.50;;;;;;;30.71;67.52;101166.47;5040134;28;69421;-38
2024/01/18 03:08:01;;;;;;;;;;;;;;;30.43;67.96;101172.16;5037266;28;66015;-39
2024/01/18 03:10:32;;;;;;;10.15;9.25;;;;;;;30.69;67.53;101169.38;5042367;28;70510;-38
2024/01/18 03:13:03;;;;;;;11.90;10.43;;;;;;;30.72;67.13;101163.53;5055284;28;65702;-38
2024/01/18 03:15:33;;;;;;;12.45;11.18;;;;;;;30.76;67.00;101154.97;5044701;28;70102;-38
2024/01/18 03:18:04;;;;;;;11.20;10.30;;;;;;;30.78;66.78;101153.72;5038434;28;66297;-38
2024/01/18 03:20:35;;;;;;;10.55;9.55;;;;;;;30.80;67.09;101150.84;5055028;28;69750;-38
2024/01/18 03:23:08;;;;;;;12.65;9.77;;;;;;;30.81;66.64;101141.66;5045394;28;43121;-38
2024/01/18 03:25:38;;;;;;;11.98;10.70;;;;;;;30.86;66.88;101141.88;5042920;28;70051;-38
2024/01/18 03:28:09;;;;;;;12.38;11.10;;;;;;;30.86;66.66;101137.28;5054550;28;65768;-38
2024/01/18 03:30:40;;;;;;;11.38;9.93;;;;;;;30.89;66.90;101125.19;5041044;28;68985;-38
2024/01/18 03:33:11;;;;;;;10.73;9.82;;;;;;;30.90;66.77;101124.16;5036472;28;65582;-38
2024/01/18 03:35:42;;;;;;;10.75;9.95;;;;;;;30.92;66.85;101128.31;5046501;28;69957;-39
2024/01/18 03:38:13;;;;;;;11.13;10.02;;;;;;;30.94;66.72;101125.38;5039523;28;65725;-39
2024/01/18 03:40:43;;;;;;;11.75;10.63;;;;;;;30.96;67.09;101117.88;5038390;28;70239;-38
2024/01/18 03:43:14;;;;;;;13.63;10.35;;;;;;;30.96;66.73;101112.44;5047190;28;66716;-37
2024/01/18 03:45:46;;;;;;;11.80;10.77;;;;;;;30.94;66.49;101098.28;5056253;28;70184;-39
2024/01/18 03:48:17;;;;;;;10.82;9.98;;;;;;;30.97;67.01;101086.19;5032929;28;66042;-38
2024/01/18 03:50:48;;;;;;;11.43;10.30;;;;;;;31.03;66.65;101098.88;5053813;28;70553;-39
2024/01/18 03:53:18;;;;;;;10.95;10.13;;;;;;;31.06;66.21;101088.41;5037728;28;66407;-38
2024/01/18 03:55:49;;;;;;;11.90;10.73;;;;;;;31.04;66.43;101079.69;5045184;28;70217;-38
2024/01/18 03:58:20;;;;;;;11.20;10.10;;;;;;;31.12;66.74;101084.88;5057030;28;66677;-38
2024/01/18 04:00:51;;;;;;;11.00;9.83;;;;;;;31.13;66.56;101078.38;5067914;28;69974;-40
2024/01/18 04:03:21;;;;;;;11.15;10.13;;;;;;;31.15;66.25;101073.59;5036761;28;66624;-39
2024/01/18 04:05:52;;;;;;;11.13;10.25;;;;;;;31.16;66.38;101075.22;5051604;28;71105;-38
2024/01/18 04:08:23;;;;;;;11.35;9.95;;;;;;;31.22;66.57;101061.88;5049538;28;65496;-38
2024/01/18 04:10:54;;;;;;;10.90;10.10;;;;;;;31.20;66.84;101061.25;5052333;28;70990;-38
2024/01/18 04:13:24;;;;;;;11.05;10.05;;;;;;;31.24;66.15;101059.78;5052987;28;65296;-39
2024/01/18 04:15:55;;;;;;;10.98;10.13;;;;;;;31.24;66.46;101057.06;5046460;28;69941;-38
2024/01/18 04:18:26;;;;;;;10.93;10.02;;;;;;;31.27;66.54;101048.50;5046235;28;67592;-39
2024/01/18 04:20:56;;;;;;;11.05;9.70;;;;;;;31.29;66.51;101041.00;5034556;28;69701;-38
2024/01/18 04:23:27;;;;;;;10.10;9.27;;;;;;;31.28;66.24;101033.88;5054822;28;66660;-38
2024/01/18 04:25:58;;;;;;;11.45;10.35;;;;;;;31.33;66.27;101036.78;5060731;28;70695;-38
2024/01/18 04:28:28;;;;;;;11.40;10.48;;;;;;;31.29;66.25;101024.72;5060680;28;65576;-38
2024/01/18 04:30:59;;;;;;;14.05;11.02;;;;;;;31.34;65.95;101022.16;5045269;28;70221;-38
2024/01/18 04:33:30;;;;;;;11.68;10.25;;;;;;;31.30;66.50;101010.94;5063205;28;65871;-38
2024/01/18 04:36:00;;;;;;;12.20;11.00;;;;;;;31.38;66.11;101012.59;5026785;28;70146;-40
2024/01/18 04:38:31;;;;;;;11.90;10.90;;;;;;;31.24;65.94;100983.91;5029130;28;66287;-38
2024/01/18 04:41:02;;;;;;;11.52;10.65;;;;;;;31.42;65.93;101010.25;5040040;28;70142;-37
2024/01/18 04:43:33;;;;;;;11.75;10.75;;;;;;;31.34;66.11;100990.50;5040919;28;67004;-38
2024/01/18 04:46:04;;;;;;;11.70;10.50;;;;;;;31.43;66.30;100992.94;5059412;28;70133;-38
2024/01/18 04:48:36;;;;;;;13.25;11.25;;;;;;;31.43;66.18;100991.06;5046758;28;65905;-37
2024/01/18 04:51:07;;;;;;;11.73;10.73;;;;;;;31.46;65.99;100990.63;5027638;28;69842;-39
2024/01/18 04:53:39;;;;;;;12.68;11.48;;;;;;;31.47;66.05;100978.72;5038946;28;66278;-38
2024/01/18 04:56:10;;;;;;;13.13;11.23;;;;;;;31.46;65.84;100973.53;5038974;28;69883;-39
2024/01/18 04:58:42;;;;;;;13.02;11.70;;;;;;;31.49;65.78;100971.19;5052915;28;66341;-38
2024/01/18 05:01:12;;;;;;;15.95;11.77;;;;;;;31.52;66.08;100970.75;5039640;28;70461;-38
2024/01/18 05:03:45;;;;;;;12.73;11.73;;;;;;;31.45;65.87;100948.28;5041380;28;66852;-38
2024/01/18 05:06:15;;;;;;;19.65;13.82;;;;;;;31.50;65.83;100939.50;5040610;28;70290;-38
2024/01/18 05:08:46;;;;;;;13.37;12.07;;;;;;;31.57;65.51;100940.25;5057415;28;66090;-38
2024/01/18 05:11:17;;;;;;;12.90;11.43;;;;;;;31.58;66.08;100931.88;5015155;28;70509;-38
2024/01/18 05:13:48;;;;;;;13.35;12.00;;;;;;;31.63;65.43;100927.69;5069598;28;67342;-38
2024/01/18 05:16:19;;;;;;;12.63;11.55;;;;;;;31.55;65.67;100904.41;5048236;28;70389;-38
2024/01/18 05:18:50;;;;;;;14.93;12.35;;;;;;;31.64;65.73;100913.06;5048635;28;66482;-38
2024/01/18 05:21:22;;;;;;;12.73;11.68;;;;;;;31.67;65.56;100912.63;5037151;28;70247;-38
2024/01/18 05:23:53;;;;;;;13.38;12.05;;;;;;;31.65;65.58;100898.44;5055642;28;66172;-37
2024/01/18 05:26:23;;;;;;;13.10;11.85;;;;;;;31.69;65.58;100884.22;5040899;28;70774;-38
2024/01/18 05:28:54;;;;;;;13.60;12.47;;;;;;;31.72;65.49;100888.38;5038522;28;67568;-38
2024/01/18 05:31:25;;;;;;;13.15;12.25;;;;;;;31.75;65.81;100877.06;5043610;28;70224;-38
2024/01/18 05:33:56;;;;;;;15.13;12.17;;;;;;;31.75;65.53;100877.06;5035591;28;66361;-39
2024/01/18 05:36:27;;;;;;;15.30;12.70;;;;;;;31.77;65.49;100864.13;5035255;28;70540;-38
2024/01/18 05:38:58;;;;;;;14.75;12.65;;;;;;;31.79;65.19;100867.44;5016818;28;65373;-39
2024/01/18 05:41:28;;;;;;;13.70;12.27;;;;;;;31.82;65.35;100861.56;5034109;28;70149;-37
2024/01/18 05:43:59;;;;;;;13.10;11.90;;;;;;;31.86;65.09;100867.34;5046763;28;65506;-38
2024/01/18 05:46:29;;;;;;;12.65;11.57;;;;;;;31.86;65.07;100861.91;5055617;28;69871;-38
2024/01/18 05:49:02;;;;;;;14.65;13.25;;;;;;;31.86;65.20;100846.47;5040704;28;66564;-38
2024/01/18 05:51:34;;;;;;;14.05;12.63;;;;;;;31.88;64.98;100838.94;5039394;28;70545;-38
2024/01/18 05:54:05;;;;;;;14.70;13.18;;;;;;;31.90;65.15;100834.13;5040564;28;65424;-38
2024/01/18 05:56:36;;;;;;;12.95;11.85;;;;;;;31.92;64.92;100823.88;5040538;28;70092;-39
2024/01/18 05:59:07;;;;;;;13.53;12.33;;;;;;;31.87;65.11;100804.72;5040343;28;66305;-38
2024/01/18 06:01:37;;;;;;;13.57;12.18;;;;;;;31.96;65.06;100803.38;5040658;28;70013;-38
2024/01/18 06:04:08;;;;;;;14.50;13.20;;;;;;;31.94;64.94;100791.94;5040001;28;65347;-38
2024/01/18 06:06:39;;;;;;;13.05;11.80;;;;;;;31.95;65.13;100790.03;5040673;28;71047;-41
2024/01/18 06:09:14;;;;;;;13.57;12.27;;;;;;;32.01;64.67;100792.69;5054505;28;66111;-37
2024/01/18 06:11:46;;;;;;;13.02;12.02;;;;;;;31.99;64.91;100774.97;5038559;28;69500;-38
2024/01/18 06:14:17;;;;;;;12.48;11.43;;;;;;;31.93;64.80;100757.72;5039335;28;64729;-37
2024/01/18 06:16:47;;;;;;;14.13;12.83;;;;;;;32.06;64.90;100770.25;5029346;28;70142;-39
2024/01/18 06:19:18;;;;;;;13.65;12.35;;;;;;;32.03;64.63;100760.69;5037063;28;65959;-38
2024/01/18 06:21:49;;;;;;;15.27;12.95;;;;;;;32.10;64.67;100757.91;5059734;28;69990;-38
2024/01/18 06:24:20;;;;;;;14.32;12.63;;;;;;;32.08;64.80;100749.16;5042137;28;66637;-37
2024/01/18 06:26:52;;;;;;;13.55;12.20;;;;;;;32.12;64.78;100757.66;5038367;28;69655;-38
2024/01/18 06:29:26;;;;;;;16.92;12.18;;;;;;;32.13;64.51;100754.72;5036726;28;65921;-39
2024/01/18 06:31:57;;;;;;;13.80;12.50;;;;;;;32.15;64.44;100749.03;5040050;28;69183;-38
2024/01/18 06:34:28;;;;;;;12.93;11.73;;;;;;;32.19;64.63;100750.25;5039139;28;67009;-38
2024/01/18 06:36:58;;;;;;;13.70;12.25;;;;;;;32.18;64.59;100745.88;5054504;28;69387;-38
2024/01/18 06:39:29;;;;;;;13.38;12.13;;;;;;;32.20;64.64;100738.31;5039307;28;65754;-38
2024/01/18 06:42:01;;;;;;;13.93;12.80;;;;;;;31.91;64.42;100686.59;5040713;28;69626;-38
2024/01/18 06:44:32;;;;;;;13.15;12.10;;;;;;;32.24;64.60;100723.25;5044569;28;66301;-39
2024/01/18 06:47:02;;;;;;;13.05;11.85;;;;;;;32.26;64.54;100721.09;5056800;28;70051;-38
2024/01/18 06:49:33;;;;;;;13.43;12.18;;;;;;;32.27;64.49;100717.34;5026033;28;66566;-39
2024/01/18 06:52:04;;;;;;;13.15;12.15;;;;;;;32.28;64.34;100706.25;5043203;28;70245;-39
2024/01/18 06:54:35;;;;;;;12.95;12.02;;;;;;;32.28;64.30;100700.00;5060493;28;66244;-41
2024/01/18 06:57:05;;;;;;;13.82;12.57;;;;;;;32.31;64.35;100699.50;5058907;28;69863;-38
2024/01/18 06:59:43;;;;;;;14.40;13.00;;;;;;;32.31;64.34;100691.38;5052816;28;65289;-38
2024/01/18 07:02:14;;;;;;;14.93;12.50;;;;;;;32.33;64.16;100694.69;5060692;28;70832;-38
2024/01/18 07:04:44;;;;;;;12.93;11.82;;;;;;;32.32;64.39;100682.19;5062836;28;65725;-39
2024/01/18 07:07:15;;;;;;;15.38;12.75;;;;;;;32.37;64.10;100686.91;5043929;28;69330;-40
2024/01/18 07:09:46;;;;;;;13.30;12.20;;;;;;;32.37;63.97;100673.31;5060897;28;66724;-38
2024/01/18 07:12:16;;;;;;;13.82;12.43;;;;;;;32.41;64.26;100669.91;5050123;28;69389;-38
2024/01/18 07:14:47;;;;;;;14.90;13.60;;;;;;;32.42;64.14;100663.41;5059539;28;66322;-38
2024/01/18 07:17:17;;;;;;;13.57;12.48;;;;;;;32.33;64.02;100651.25;5061176;28;70126;-38
2024/01/18 07:19:49;;;;;;;13.70;12.52;;;;;;;32.43;64.25;100656.94;5060047;28;65263;-38
2024/01/18 07:22:19;;;;;;;12.73;11.73;;;;;;;32.40;64.05;100651.13;5061514;28;69509;-38
2024/01/18 07:24:50;;;;;;;13.93;12.55;;;;;;;32.51;63.94;100657.66;5043104;28;66412;-38
2024/01/18 07:27:21;;;;;;;14.60;13.20;;;;;;;32.53;63.98;100655.53;5062798;28;70144;-38
2024/01/18 07:29:51;;;;;;;14.13;12.95;;;;;;;32.54;63.87;100658.03;5039736;28;66238;-38
2024/01/18 07:32:23;;;;;;;14.13;12.77;;;;;;;32.51;63.84;100644.06;5053223;28;70502;-39
2024/01/18 07:34:54;;;;;;;14.18;12.88;;;;;;;32.56;63.64;100655.06;5058491;28;65358;-38
2024/01/18 07:37:24;;;;;;;14.10;12.75;;;;;;;32.60;63.39;100650.81;5056294;28;70039;-37
2024/01/18 07:39:55;;;;;;;13.45;12.20;;;;;;;32.57;63.73;100641.25;5053506;27;67030;-38
2024/01/18 07:42:25;;;;;;;13.85;12.55;;;;;;;32.62;63.75;100646.78;5045694;28;70295;-38
2024/01/18 07:44:57;;;;;;;15.02;13.52;;;;;;;32.65;63.80;100656.34;5049593;28;66511;-37
2024/01/18 07:47:28;;;;;;;13.93;12.65;;;;;;;32.65;63.69;100654.47;5042208;28;69784;-38
2024/01/18 07:49:59;;;;;;;13.85;12.60;;;;;;;32.55;63.56;100637.13;5042333;28;66503;-38
2024/01/18 07:52:47;;;;;;;14.45;13.15;;;;;;;32.68;63.52;100654.00;5021032;28;69954;-39
2024/01/18 07:55:18;;;;;;;13.95;12.85;;;;;;;32.67;63.66;100648.78;5037250;28;66595;-39
2024/01/18 07:57:51;;;;;;;16.45;13.38;;;;;;;32.69;63.44;100643.94;5036317;28;69890;-41
2024/01/18 08:00:22;;;;;;;;;;;;;;;32.49;63.47;100650.59;5052911;28;65987;-38
2024/01/18 08:02:53;;;;;;;14.77;13.30;;;;;;;32.72;63.19;100648.91;5039871;28;70564;-39
2024/01/18 08:05:24;;;;;;;14.23;12.90;;;;;;;32.74;63.43;100645.97;5023725;28;66865;-39
2024/01/18 08:07:54;;;;;;;14.30;13.00;;;;;;;32.72;63.46;100644.28;5045635;28;70589;-38
2024/01/18 08:10:26;;;;;;;14.88;13.50;;;;;;;32.77;63.36;100649.03;5035185;28;65939;-39
2024/01/18 08:12:58;;;;;;;14.63;13.27;;;;;;;32.78;63.42;100647.13;5043083;28;70885;-38
2024/01/18 08:15:28;;;;;;;;;;;;;;;32.59;62.93;100644.53;5044460;28;66548;-39
2024/01/18 08:18:00;;;;;;;14.80;13.32;;;;;;;32.79;63.12;100644.19;5042900;28;70283;-39
2024/01/18 08:20:30;;;;;;;14.60;13.30;;;;;;;32.83;63.30;100644.53;5053245;28;65899;-38
2024/01/18 08:23:01;;;;;;;15.02;13.43;;;;;;;32.86;63.10;100638.59;5042808;28;69960;-40
2024/01/18 08:25:32;;;;;;;15.18;13.75;;;;;;;32.87;62.96;100635.63;5042789;28;66683;-39
2024/01/18 08:28:03;;;;;;;13.83;12.60;;;;;;;32.70;63.20;100613.00;5066022;28;70907;-42
2024/01/18 08:30:34;;;;;;;14.52;13.30;;;;;;;32.85;63.05;100639.69;5059390;28;65872;-38
2024/01/18 08:33:05;;;;;;;15.43;13.93;;;;;;;32.92;62.94;100633.03;5045218;28;70535;-38
2024/01/18 08:35:35;;;;;;;25.77;15.38;;;;;;;32.80;63.55;100634.97;5059761;28;65246;-39
2024/01/18 08:38:06;;;;;;;20.52;18.45;;;;;;;32.77;64.75;100635.44;5060760;28;70381;-38
2024/01/18 08:40:37;;;;;;;24.35;19.25;;;;;;;32.70;65.43;100640.97;5050592;28;65718;-40
2024/01/18 08:43:08;;;;;;;25.13;19.75;;;;;;;32.63;66.60;100643.03;5041044;28;69767;-39
2024/01/18 08:45:41;;;;;;;25.45;18.48;;;;;;;32.58;66.47;100642.91;5044889;28;66533;-39
2024/01/18 08:48:12;;;;;;;25.80;18.80;;;;;;;32.61;66.47;100645.13;5041454;28;69815;-38
2024/01/18 08:50:42;;;;;;;26.15;20.33;;;;;;;32.55;67.35;100648.00;5044593;28;66041;-39
2024/01/18 08:53:13;;;;;;;25.20;19.98;;;;;;;32.53;67.62;100652.81;5057410;28;70422;-39
2024/01/18 08:55:44;;;;;;;24.80;19.35;;;;;;;32.52;67.37;100653.91;5040655;28;66521;-39
2024/01/18 08:58:16;;;;;;;25.80;19.60;;;;;;;32.52;67.89;100653.91;5056624;28;69845;-38
2024/01/18 09:00:47;;;;;;;26.55;20.52;;;;;;;32.49;67.88;100645.16;5045733;28;65658;-38
2024/01/18 09:03:18;;;;;;;21.92;19.63;;;;;;;32.46;67.62;100647.53;5040295;28;71449;-39
2024/01/18 09:05:48;;;;;;;24.95;20.10;;;;;;;32.48;68.06;100651.66;5044283;28;66586;-39
2024/01/18 09:08:19;;;;;;;30.30;20.25;;;;;;;32.45;67.86;100643.94;5042460;28;69570;-37
2024/01/18 09:10:50;;;;;;;32.30;20.48;;;;;;;32.45;68.43;100649.34;5038813;28;65588;-37
2024/01/18 09:13:20;;;;;;;26.83;19.65;;;;;;;32.45;68.29;100649.34;5063656;28;69940;-38
2024/01/18 09:15:51;;;;;;;26.77;20.00;;;;;;;32.48;68.42;100658.94;5036662;28;66402;-38
2024/01/18 09:18:22;;;;;;;29.65;20.02;;;;;;;32.40;68.78;100641.13;5038454;28;69865;-40
2024/01/18 09:20:52;;;;;;;23.52;20.05;;;;;;;32.60;67.05;100656.25;5039572;28;65797;-39
2024/01/18 09:23:22;;;;;;;27.73;20.88;;;;;;;32.52;67.26;100640.31;5037288;28;69765;-40
2024/01/18 09:25:53;;;;;;;32.20;21.77;;;;;;;32.76;66.53;100663.66;5038155;28;66192;-38
2024/01/18 09:28:24;;;;;;;25.10;20.77;;;;;;;32.77;66.92;100659.88;5040144;28;69897;-39
2024/01/18 09:30:54;;;;;;;24.83;18.80;;;;;;;32.87;67.20;100673.66;5038853;28;66020;-40
2024/01/18 09:33:25;;;;;;;29.30;20.52;;;;;;;32.91;67.20;100677.56;5040299;28;70374;-40
2024/01/18 09:35:55;;;;;;;26.42;19.48;;;;;;;32.96;67.06;100681.44;5047025;28;65952;-40
2024/01/18 09:38:29;;;;;;;18.00;16.30;;;;;;;33.00;67.14;100682.66;5040096;28;68943;-39
2024/01/18 09:41:06;;;;;;;28.42;16.73;;;;;;;32.67;68.29;100629.78;5048788;28;65484;-39
2024/01/18 09:43:39;;;;;;;24.13;16.40;;;;;;;32.84;67.64;100646.97;5052075;28;70523;-39
2024/01/18 09:46:12;;;;;;;25.38;16.63;;;;;;;33.09;68.39;100700.25;5039828;28;65886;-39
2024/01/18 09:48:43;;;;;;;17.13;15.23;;;;;;;33.12;68.17;100703.31;5040058;28;70453;-38
2024/01/18 09:51:16;;;;;;;20.52;15.65;;;;;;;33.05;68.41;100685.50;5035688;28;65947;-38
2024/01/18 09:53:49;;;;;;;27.50;14.25;;;;;;;33.11;67.68;100709.00;5037415;28;70406;-38
2024/01/18 09:56:24;;;;;;;24.95;14.07;;;;;;;33.14;68.20;100722.09;5046368;28;65437;-37
2024/01/18 09:58:56;;;;;;;24.58;13.25;;;;;;;33.19;67.02;100719.50;5037455;28;70851;-37
2024/01/18 10:01:28;;;;;;;22.58;12.82;;;;;;;32.89;67.22;100678.88;5030938;28;66061;-38
2024/01/18 10:03:59;;;;;;;14.87;12.63;;;;;;;33.12;67.54;100726.94;5043498;28;71032;-38
2024/01/18 10:06:29;;;;;;;27.35;13.25;;;;;;;33.13;67.13;100731.34;5040896;28;67016;-38
2024/01/18 10:09:00;;;;;;;18.73;12.53;;;;;;;33.16;67.89;100736.28;5038028;28;70156;-38
2024/01/18 10:11:31;;;;;;;21.35;12.23;;;;;;;33.15;67.88;100735.47;5042040;28;66675;-38
2024/01/18 10:14:02;;;;;;;20.30;11.30;;;;;;;33.15;67.99;100732.75;5050693;28;69932;-41
2024/01/18 10:16:37;;;;;;;16.15;10.75;;;;;;;33.11;68.67;100733.44;5044747;28;65725;-40
2024/01/18 10:19:15;;;;;;;13.20;10.82;;;;;;;32.91;69.44;100698.50;5071131;27;69932;-39
2024/01/18 10:21:47;;;;;;;16.27;10.82;;;;;;;32.91;68.06;100691.16;5037308;28;65765;-39
2024/01/18 10:24:18;;;;;;;12.63;10.32;;;;;;;33.26;68.38;100747.34;5039314;28;70138;-42
2024/01/18 10:27:01;;;;;;;11.38;9.82;;;;;;;33.21;68.61;100739.13;5040020;28;66600;-40
2024/01/18 10:29:37;;;;;;;22.02;11.07;;;;;;;33.22;69.57;100732.59;5040716;28;69544;-40
2024/01/18 10:32:08;;;;;;;15.30;10.93;;;;;;;33.26;68.09;100750.06;5062055;28;67047;-40
2024/01/18 10:34:39;;;;;;;17.23;10.57;;;;;;;33.27;68.13;100748.22;5062232;28;70600;-39
2024/01/18 10:37:17;;;;;;;13.27;10.23;;;;;;;32.87;68.44;100689.16;5042541;28;66178;-40
2024/01/18 10:39:48;;;;;;;16.77;10.90;;;;;;;33.23;67.63;100758.72;5044920;28;70016;-39
2024/01/18 10:42:19;;;;;;;20.85;10.88;;;;;;;33.19;67.77;100765.69;5052436;28;66109;-40
2024/01/18 10:44:51;;;;;;;22.52;11.05;;;;;;;33.17;67.94;100769.72;5040627;28;70144;-40
2024/01/18 10:47:23;;;;;;;13.00;10.30;;;;;;;33.07;67.58;100752.13;5037348;28;66046;-39
2024/01/18 10:49:56;;;;;;;22.55;10.82;;;;;;;32.78;68.05;100713.13;5031355;28;70261;-42
2024/01/18 10:52:28;;;;;;;13.68;9.77;;;;;;;33.06;67.48;100760.50;5045845;28;66007;-40
2024/01/18 10:54:58;;;;;;;;;;;;;;;32.91;69.20;100785.44;5059521;28;69319;-40
2024/01/18 10:57:38;;;;;;;12.55;10.43;;;;;;;33.08;67.98;100782.84;5050071;28;67093;-40
2024/01/18 11:00:10;;;;;;;15.60;10.63;;;;;;;32.99;68.36;100771.50;5058791;28;70329;-39
2024/01/18 11:02:44;;;;;;;16.73;10.35;;;;;;;33.09;67.87;100798.09;5061445;28;66138;-40
2024/01/18 11:05:17;;;;;;;19.00;10.98;;;;;;;32.92;67.92;100779.75;5039321;28;69926;-41
2024/01/18 11:07:48;;;;;;;13.48;10.40;;;;;;;33.05;67.90;100810.50;5041327;28;66331;-43
2024/01/18 11:10:18;;;;;;;15.38;10.32;;;;;;;33.07;68.12;100814.66;5042881;28;70553;-40
2024/01/18 11:12:49;;;;;;;16.13;10.73;;;;;;;32.94;68.94;100798.53;5037737;28;66730;-38
2024/01/18 11:15:20;;;;;;;16.08;11.20;;;;;;;33.02;68.39;100821.84;5041428;28;70277;-39
2024/01/18 11:17:52;;;;;;;24.38;12.63;;;;;;;33.02;68.59;100819.13;5042968;28;65632;-39
2024/01/18 11:20:22;;;;;;;23.80;14.15;;;;;;;32.97;68.21;100821.69;5040693;28;70105;-38
2024/01/18 11:22:58;;;;;;;23.90;14.43;;;;;;;33.04;68.97;100841.44;5039081;28;65282;-39
2024/01/18 11:25:30;;;;;;;18.55;13.50;;;;;;;33.02;67.84;100844.41;5041508;28;70126;-39
2024/01/18 11:28:01;;;;;;;26.48;13.70;;;;;;;33.01;67.82;100848.19;5035106;28;65792;-40
2024/01/18 11:30:34;;;;;;;17.85;13.27;;;;;;;32.60;68.41;100800.19;5035594;28;69478;-38